createdAt,value
2023-12-05T00:02:13.038Z,17.30
2023-12-05T00:05:21.023Z,13.30
2023-12-05T00:08:27.714Z,16.13
2023-12-05T00:11:33.978Z,17.57
2023-12-05T00:14:40.235Z,16.53
2023-12-05T00:17:46.729Z,16.97
2023-12-05T00:20:55.163Z,13.73
2023-12-05T00:24:01.592Z,12.40
2023-12-05T00:27:09.386Z,10.67
2023-12-05T00:30:17.094Z,12.43
2023-12-05T00:33:23.846Z,13.47
2023-12-05T00:36:31.499Z,11.73
2023-12-05T00:39:37.828Z,10.83
2023-12-05T00:42:44.325Z,9.80
2023-12-05T00:45:50.891Z,10.00
2023-12-05T00:48:57.314Z,9.10
2023-12-05T00:52:05.993Z,9.20
2023-12-05T00:55:12.290Z,10.80
2023-12-05T00:58:18.733Z,11.33
2023-12-05T01:01:25.244Z,12.00
2023-12-05T01:04:32.133Z,11.87
2023-12-05T01:07:40.306Z,12.57
2023-12-05T01:10:47.118Z,12.23
2023-12-05T01:13:53.624Z,11.77
2023-12-05T01:17:00.346Z,11.47
2023-12-05T01:20:10.390Z,13.50
2023-12-05T01:23:18.982Z,23.53
2023-12-05T01:26:25.438Z,20.67
2023-12-05T01:29:31.864Z,17.70
2023-12-05T01:32:38.649Z,18.00
2023-12-05T01:35:45.178Z,14.87
2023-12-05T01:38:53.095Z,15.63
2023-12-05T01:42:01.285Z,14.87
2023-12-05T01:45:10.151Z,16.67
2023-12-05T01:48:17.387Z,13.97
2023-12-05T01:51:23.886Z,15.27
2023-12-05T01:54:34.550Z,12.97
2023-12-05T01:57:41.094Z,13.77
2023-12-05T02:00:48.570Z,14.70
2023-12-05T02:03:55.440Z,12.87
2023-12-05T02:07:02.744Z,13.67
2023-12-05T02:10:12.020Z,12.90
2023-12-05T02:13:18.905Z,13.17
2023-12-05T02:16:32.808Z,14.40
2023-12-05T02:19:52.365Z,13.93
2023-12-05T02:23:24.422Z,12.20
2023-12-05T02:26:44.326Z,12.40
2023-12-05T02:29:53.777Z,12.60
2023-12-05T02:33:00.605Z,12.67
2023-12-05T02:36:18.714Z,15.50
2023-12-05T02:39:34.424Z,17.27
2023-12-05T02:42:41.940Z,16.30
2023-12-05T02:45:52.964Z,16.00
2023-12-05T02:49:15.176Z,11.77
2023-12-05T02:52:21.847Z,13.07
2023-12-05T02:55:28.257Z,9.33
2023-12-05T02:58:34.537Z,10.37
2023-12-05T03:01:42.916Z,10.00
2023-12-05T03:04:49.432Z,11.30
2023-12-05T03:07:56.114Z,11.53
2023-12-05T03:11:07.210Z,13.13
2023-12-05T03:14:16.567Z,11.03
2023-12-05T03:17:24.443Z,11.90
2023-12-05T03:20:31.150Z,11.70
2023-12-05T03:23:37.387Z,12.53
2023-12-05T03:26:43.971Z,12.23
2023-12-05T03:29:50.560Z,12.67
2023-12-05T03:32:58.535Z,14.00
2023-12-05T03:36:06.008Z,13.00
2023-12-05T03:39:12.900Z,13.57
2023-12-05T03:42:19.801Z,13.70
2023-12-05T03:45:26.704Z,15.63
2023-12-05T03:48:34.952Z,14.13
2023-12-05T03:51:41.545Z,14.80
2023-12-05T03:54:48.084Z,15.63
2023-12-05T03:57:54.917Z,14.67
2023-12-05T04:01:01.721Z,15.90
2023-12-05T04:04:09.752Z,15.43
2023-12-05T04:07:17.169Z,14.83
2023-12-05T04:10:25.078Z,13.73
2023-12-05T04:13:32.199Z,13.67
2023-12-05T04:16:38.724Z,12.80
2023-12-05T04:19:46.406Z,12.40
2023-12-05T04:22:53.023Z,11.53
2023-12-05T04:25:59.227Z,12.60
2023-12-05T04:29:05.728Z,17.20
2023-12-05T04:32:14.798Z,17.77
2023-12-05T04:35:22.605Z,23.93
2023-12-05T04:38:29.062Z,23.80
2023-12-05T04:41:36.981Z,35.60
2023-12-05T04:44:43.510Z,27.80
2023-12-05T04:47:50.215Z,23.63
2023-12-05T04:50:57.906Z,40.40
2023-12-05T04:54:04.820Z,19.50
2023-12-05T04:57:11.146Z,18.43
2023-12-05T05:00:18.558Z,18.40
2023-12-05T05:03:25.248Z,15.40
2023-12-05T05:06:33.102Z,19.93
2023-12-05T05:09:42.409Z,14.23
2023-12-05T05:12:49.023Z,14.90
2023-12-05T05:15:55.855Z,16.10
2023-12-05T05:19:02.958Z,18.87
2023-12-05T05:22:10.825Z,21.33
2023-12-05T05:25:17.809Z,21.40
2023-12-05T05:28:24.136Z,17.00
2023-12-05T05:31:30.444Z,15.77
2023-12-05T05:34:37.015Z,17.40
2023-12-05T05:37:45.194Z,22.97
2023-12-05T05:40:51.709Z,17.73
2023-12-05T05:43:57.951Z,14.00
2023-12-05T05:47:04.828Z,17.70
2023-12-05T05:50:13.150Z,24.27
2023-12-05T05:53:20.984Z,49.60
2023-12-05T05:56:27.796Z,41.47
2023-12-05T05:59:34.405Z,33.37
2023-12-05T06:02:41.366Z,33.77
2023-12-05T06:05:48.078Z,21.80
2023-12-05T06:08:56.812Z,17.33
2023-12-05T06:12:04.343Z,19.63
2023-12-05T06:15:11.487Z,24.17
2023-12-05T06:18:18.004Z,16.67
2023-12-05T06:21:24.427Z,21.10
2023-12-05T06:24:32.283Z,24.03
2023-12-05T06:27:38.721Z,23.77
2023-12-05T06:30:45.600Z,15.13
2023-12-05T06:33:52.787Z,15.53
2023-12-05T06:36:59.681Z,15.57
2023-12-05T06:40:09.069Z,18.27
2023-12-05T06:43:15.298Z,24.77
2023-12-05T06:46:21.986Z,14.07
2023-12-05T06:49:28.944Z,18.70
2023-12-05T06:52:35.465Z,21.20
2023-12-05T06:55:43.578Z,27.60
2023-12-05T06:58:50.137Z,23.30
2023-12-05T07:01:57.246Z,19.53
2023-12-05T07:05:06.412Z,19.73
2023-12-05T07:08:13.106Z,20.47
2023-12-05T07:11:21.306Z,23.40
2023-12-05T07:14:28.129Z,22.53
2023-12-05T07:17:34.832Z,19.60
2023-12-05T07:20:41.241Z,22.43
2023-12-05T07:23:55.202Z,54.23
2023-12-05T07:27:08.915Z,36.73
2023-12-05T07:30:16.306Z,31.73
2023-12-05T07:33:22.860Z,12.83
2023-12-05T07:36:29.448Z,28.27
2023-12-05T07:39:36.820Z,43.90
2023-12-05T07:42:45.483Z,23.43
2023-12-05T07:45:52.266Z,22.20
2023-12-05T07:48:58.946Z,24.27
2023-12-05T07:52:06.793Z,12.07
2023-12-05T07:55:13.689Z,16.20
2023-12-05T07:58:21.340Z,20.23
2023-12-05T08:01:27.929Z,31.17
2023-12-05T08:04:34.498Z,28.03
2023-12-05T08:07:41.285Z,20.17
2023-12-05T08:10:48.065Z,28.17
2023-12-05T08:13:56.092Z,26.57
2023-12-05T08:17:02.672Z,25.20
2023-12-05T08:20:10.375Z,22.73
2023-12-05T08:23:17.184Z,17.77
2023-12-05T08:26:23.742Z,17.60
2023-12-05T08:29:31.673Z,21.20
2023-12-05T08:32:38.449Z,22.27
2023-12-05T08:35:45.093Z,26.40
2023-12-05T08:38:51.830Z,19.70
2023-12-05T08:42:00.699Z,47.90
2023-12-05T08:45:12.349Z,42.40
2023-12-05T08:48:19.336Z,41.13
2023-12-05T08:51:26.285Z,19.43
2023-12-05T08:54:33.414Z,17.97
2023-12-05T08:57:40.467Z,26.97
2023-12-05T09:00:48.529Z,17.73
2023-12-05T09:03:56.919Z,13.80
2023-12-05T09:07:04.763Z,19.13
2023-12-05T09:10:11.816Z,26.67
2023-12-05T09:13:18.417Z,25.47
2023-12-05T09:16:26.506Z,18.97
2023-12-05T09:19:33.411Z,17.20
2023-12-05T09:22:40.436Z,20.60
2023-12-05T09:25:46.980Z,23.57
2023-12-05T09:28:53.438Z,23.47
2023-12-05T09:32:01.609Z,28.03
2023-12-05T09:35:09.272Z,17.13
2023-12-05T09:38:16.008Z,18.30
2023-12-05T09:41:23.132Z,20.57
2023-12-05T09:44:31.065Z,69.80
2023-12-05T09:47:41.320Z,13.07
2023-12-05T09:50:48.597Z,10.60
2023-12-05T09:53:57.527Z,13.60
2023-12-05T09:57:04.698Z,15.87
2023-12-05T10:00:12.434Z,16.87
2023-12-05T10:03:22.017Z,23.47
2023-12-05T10:06:28.870Z,19.63
2023-12-05T10:09:35.909Z,23.47
2023-12-05T10:12:43.319Z,21.67
2023-12-05T10:15:50.186Z,24.00
2023-12-05T10:18:59.006Z,19.77
2023-12-05T10:22:06.100Z,20.47
2023-12-05T10:25:16.210Z,17.40
2023-12-05T10:28:22.878Z,17.03
2023-12-05T10:31:29.712Z,12.97
2023-12-05T10:34:50.563Z,11.37
2023-12-05T10:37:57.553Z,9.13
2023-12-05T10:41:04.026Z,15.27
2023-12-05T10:44:10.594Z,27.10
2023-12-05T10:47:19.907Z,36.10
2023-12-05T10:50:28.356Z,24.20
2023-12-05T10:53:37.138Z,10.43
2023-12-05T10:56:58.439Z,10.77
2023-12-05T11:00:07.619Z,18.77
2023-12-05T11:03:16.084Z,11.80
2023-12-05T11:06:27.000Z,11.50
2023-12-05T11:09:33.180Z,23.03
2023-12-05T11:12:42.197Z,17.23
2023-12-05T11:15:52.526Z,17.03
2023-12-05T11:19:13.486Z,18.60
2023-12-05T11:22:28.961Z,15.50
2023-12-05T11:25:49.723Z,15.03
2023-12-05T11:29:17.227Z,12.53
2023-12-05T11:32:35.555Z,16.17
2023-12-05T11:36:03.059Z,22.17
2023-12-05T11:39:12.342Z,19.57
2023-12-05T11:42:20.578Z,13.17
2023-12-05T11:45:27.481Z,9.93
2023-12-05T11:48:35.054Z,8.67
2023-12-05T11:51:41.727Z,16.87
2023-12-05T11:54:50.656Z,11.67
2023-12-05T11:57:57.268Z,12.40
2023-12-05T12:01:05.501Z,12.07
2023-12-05T12:04:20.525Z,16.83
2023-12-05T12:07:27.677Z,14.93
2023-12-05T12:10:35.873Z,19.10
2023-12-05T12:13:44.685Z,20.23
2023-12-05T12:16:52.607Z,20.60
2023-12-05T12:19:59.527Z,17.43
2023-12-05T12:23:06.474Z,15.60
2023-12-05T12:26:15.442Z,19.77
2023-12-05T12:29:22.645Z,12.50
2023-12-05T12:32:29.445Z,11.93
2023-12-05T12:35:36.355Z,16.57
2023-12-05T12:38:43.706Z,11.87
2023-12-05T12:41:52.100Z,15.97
2023-12-05T12:44:58.487Z,14.00
2023-12-05T12:48:05.854Z,13.17
2023-12-05T12:51:13.384Z,17.80
2023-12-05T12:54:20.597Z,13.60
2023-12-05T12:57:28.407Z,13.23
2023-12-05T13:00:38.576Z,15.33
2023-12-05T13:03:46.523Z,17.47
2023-12-05T13:06:53.656Z,19.60
2023-12-05T13:10:00.769Z,15.03
2023-12-05T13:13:09.871Z,15.27
2023-12-05T13:16:16.715Z,13.70
2023-12-05T13:19:25.000Z,13.50
2023-12-05T13:22:31.953Z,12.60
2023-12-05T13:25:43.547Z,6.43
2023-12-05T13:28:53.912Z,5.73
2023-12-05T13:32:00.835Z,5.93
2023-12-05T13:35:09.666Z,5.97
2023-12-05T13:38:16.443Z,6.30
2023-12-05T13:41:22.896Z,7.07
2023-12-05T13:44:30.702Z,4.23
2023-12-05T13:47:37.040Z,5.10
2023-12-05T13:50:43.600Z,4.67
2023-12-05T13:53:50.007Z,5.37
2023-12-05T13:56:56.622Z,5.53
2023-12-05T14:00:05.720Z,9.83
2023-12-05T14:03:12.347Z,7.47
2023-12-05T14:06:19.168Z,33.23
2023-12-05T14:09:26.124Z,15.30
2023-12-05T14:12:32.527Z,17.03
2023-12-05T14:15:40.819Z,18.63
2023-12-05T14:18:47.568Z,19.73
2023-12-05T14:21:55.414Z,24.53
2023-12-05T14:25:02.194Z,23.73
2023-12-05T14:28:09.246Z,18.57
2023-12-05T14:31:17.695Z,15.77
2023-12-05T14:34:24.329Z,18.40
2023-12-05T14:37:31.120Z,33.30
2023-12-05T14:40:37.821Z,60.47
2023-12-05T14:43:44.546Z,36.80
2023-12-05T14:46:52.609Z,27.27
2023-12-05T14:49:59.099Z,73.67
2023-12-05T14:53:05.799Z,40.23
2023-12-05T14:56:12.410Z,28.83
2023-12-05T14:59:19.025Z,24.23
2023-12-05T15:02:27.278Z,33.90
2023-12-05T15:05:34.264Z,31.83
2023-12-05T15:08:40.525Z,29.23
2023-12-05T15:11:47.476Z,39.47
2023-12-05T15:14:54.375Z,33.33
2023-12-05T15:18:01.999Z,39.03
2023-12-05T15:21:09.276Z,38.57
2023-12-05T15:24:15.909Z,35.23
2023-12-05T15:27:22.401Z,34.07
2023-12-05T15:30:28.770Z,30.97
2023-12-05T15:33:36.978Z,28.07
2023-12-05T15:36:43.744Z,35.13
2023-12-05T15:39:50.361Z,39.00
2023-12-05T15:42:57.221Z,38.37
2023-12-05T15:46:03.881Z,42.90
2023-12-05T15:49:12.119Z,40.20
2023-12-05T15:52:18.655Z,33.87
2023-12-05T15:55:26.508Z,52.70
2023-12-05T15:58:33.239Z,44.37
2023-12-05T16:01:40.024Z,24.13
2023-12-05T16:04:48.444Z,20.00
2023-12-05T16:07:55.275Z,35.00
2023-12-05T16:11:01.753Z,35.07
2023-12-05T16:14:08.748Z,32.00
2023-12-05T16:17:15.516Z,30.77
2023-12-05T16:20:23.716Z,31.53
2023-12-05T16:23:31.129Z,37.13
2023-12-05T16:26:40.879Z,49.07
2023-12-05T16:29:47.276Z,51.23
2023-12-05T16:32:54.262Z,52.07
2023-12-05T16:36:02.107Z,50.17
2023-12-05T16:39:08.883Z,54.13
2023-12-05T16:42:15.240Z,60.50
2023-12-05T16:45:25.966Z,39.20
2023-12-05T16:48:33.966Z,31.07
2023-12-05T16:51:41.890Z,32.17
2023-12-05T16:54:48.052Z,38.43
2023-12-05T16:57:54.910Z,48.37
2023-12-05T17:01:01.546Z,55.50
2023-12-05T17:04:07.921Z,51.40
2023-12-05T17:07:16.141Z,49.07
2023-12-05T17:10:22.730Z,50.47
2023-12-05T17:13:29.290Z,60.50
2023-12-05T17:16:35.866Z,77.40
2023-12-05T17:19:42.650Z,81.23
2023-12-05T17:22:51.388Z,74.90
2023-12-05T17:25:57.989Z,51.87
2023-12-05T17:29:04.676Z,33.00
2023-12-05T17:32:13.128Z,33.30
2023-12-05T17:35:19.864Z,29.90
2023-12-05T17:38:27.985Z,35.63
2023-12-05T17:41:35.297Z,43.57
2023-12-05T17:44:42.973Z,47.37
2023-12-05T17:47:49.809Z,54.33
2023-12-05T17:50:56.244Z,52.07
2023-12-05T17:54:04.475Z,51.00
2023-12-05T17:57:11.929Z,40.30
2023-12-05T18:00:19.080Z,45.33
2023-12-05T18:03:26.144Z,46.70
2023-12-05T18:06:32.756Z,47.87
2023-12-05T18:09:41.007Z,53.53
2023-12-05T18:12:47.899Z,54.60
2023-12-05T18:15:54.776Z,47.13
2023-12-05T18:19:07.069Z,50.23
2023-12-05T18:22:14.206Z,51.60
2023-12-05T18:25:23.800Z,46.87
2023-12-05T18:28:30.507Z,51.03
2023-12-05T18:31:36.901Z,58.80
2023-12-05T18:34:43.507Z,60.57
2023-12-05T18:37:50.255Z,62.07
2023-12-05T18:40:58.582Z,53.00
2023-12-05T18:44:04.928Z,51.60
2023-12-05T18:47:11.686Z,54.50
2023-12-05T18:50:19.070Z,52.77
2023-12-05T18:53:29.590Z,52.97
2023-12-05T18:56:37.632Z,27.37
2023-12-05T18:59:45.051Z,36.50
2023-12-05T19:02:52.062Z,54.17
2023-12-05T19:06:00.329Z,46.53
2023-12-05T19:09:07.181Z,46.30
2023-12-05T19:12:15.401Z,30.00
2023-12-05T19:15:24.127Z,32.83
2023-12-05T19:18:30.945Z,23.10
2023-12-05T19:21:37.812Z,23.47
2023-12-05T19:24:45.900Z,22.67
2023-12-05T19:27:55.422Z,21.10
2023-12-05T19:31:02.288Z,16.33
2023-12-05T19:34:09.267Z,17.63
2023-12-05T19:37:15.938Z,31.00
2023-12-05T19:40:22.464Z,31.67
2023-12-05T19:43:30.560Z,20.37
2023-12-05T19:46:37.407Z,17.23
2023-12-05T19:49:44.005Z,16.73
2023-12-05T19:52:54.143Z,36.93
2023-12-05T19:56:00.774Z,48.83
2023-12-05T19:59:09.207Z,35.93
2023-12-05T20:02:16.042Z,27.67
2023-12-05T20:05:22.848Z,28.60
2023-12-05T20:08:29.525Z,35.57
2023-12-05T20:11:36.412Z,37.60
2023-12-05T20:14:44.100Z,36.67
2023-12-05T20:17:50.741Z,42.37
2023-12-05T20:20:57.699Z,37.67
2023-12-05T20:24:04.988Z,32.00
2023-12-05T20:27:13.885Z,28.23
2023-12-05T20:30:22.622Z,29.57
2023-12-05T20:33:29.464Z,28.60
2023-12-05T20:36:36.138Z,26.60
2023-12-05T20:39:43.713Z,24.27
2023-12-05T20:42:50.312Z,34.73
2023-12-05T20:45:58.670Z,43.50
2023-12-05T20:49:05.351Z,38.33
2023-12-05T20:52:11.715Z,38.77
2023-12-05T20:55:18.142Z,29.27
2023-12-05T20:58:24.881Z,26.33
2023-12-05T21:01:33.289Z,24.33
2023-12-05T21:04:41.208Z,22.63
2023-12-05T21:07:48.334Z,21.33
2023-12-05T21:10:56.077Z,24.87
2023-12-05T21:14:03.483Z,25.13
2023-12-05T21:17:11.314Z,23.30
2023-12-05T21:20:20.528Z,27.27
2023-12-05T21:23:30.537Z,27.00
2023-12-05T21:26:36.976Z,22.70
2023-12-05T21:29:43.637Z,18.53
2023-12-05T21:32:51.661Z,19.97
2023-12-05T21:35:58.448Z,19.67
2023-12-05T21:39:05.237Z,19.37
2023-12-05T21:42:12.190Z,19.00
2023-12-05T21:45:19.494Z,19.87
2023-12-05T21:48:27.497Z,19.93
2023-12-05T21:51:35.852Z,20.10
2023-12-05T21:54:42.209Z,23.07
2023-12-05T21:57:48.737Z,22.67
2023-12-05T22:00:55.687Z,33.17
2023-12-05T22:04:03.811Z,33.47
2023-12-05T22:07:10.211Z,27.13
2023-12-05T22:10:17.443Z,27.10
2023-12-05T22:13:24.237Z,21.00
2023-12-05T22:16:31.055Z,19.70
2023-12-05T22:19:39.052Z,18.13
2023-12-05T22:22:45.443Z,19.60
2023-12-05T22:25:51.819Z,17.67
2023-12-05T22:28:58.645Z,15.77
2023-12-05T22:32:05.053Z,25.00
2023-12-05T22:35:13.323Z,28.23
2023-12-05T22:38:20.008Z,34.30
2023-12-05T22:41:26.757Z,40.13
2023-12-05T22:44:33.397Z,42.70
2023-12-05T22:47:40.094Z,42.90
2023-12-05T22:50:48.033Z,35.00
2023-12-05T22:53:54.128Z,27.27
2023-12-05T22:57:00.651Z,26.40
2023-12-05T23:00:09.384Z,24.77
2023-12-05T23:03:15.980Z,22.10
2023-12-05T23:06:23.776Z,22.70
2023-12-05T23:09:30.007Z,21.77
2023-12-05T23:12:36.772Z,20.47
2023-12-05T23:15:43.545Z,22.60
2023-12-05T23:18:51.796Z,24.87
2023-12-05T23:22:00.000Z,22.60
2023-12-05T23:25:07.349Z,22.67
2023-12-05T23:28:18.697Z,19.23
2023-12-05T23:31:28.780Z,20.43
2023-12-05T23:34:35.799Z,18.57
2023-12-05T23:37:43.893Z,22.70
2023-12-05T23:40:50.341Z,18.60
2023-12-05T23:43:56.824Z,16.60
2023-12-05T23:47:03.318Z,16.33
2023-12-05T23:50:10.517Z,24.33
2023-12-05T23:53:18.151Z,23.87
2023-12-05T23:56:24.759Z,23.10
2023-12-05T23:59:31.403Z,18.30
